sensor_id;sensor_type;location;lat;lon;timestamp;P1;durP1;ratioP1;P2;durP2;ratioP2
14088;SDS011;7120;52.890;6.040;2023-03-13T00:00:57;31.47;;;7.90;;
14088;SDS011;7120;52.890;6.040;2023-03-13T00:03:23;31.80;;;7.27;;
14088;SDS011;7120;52.890;6.040;2023-03-13T00:05:49;37.87;;;8.07;;
14088;SDS011;7120;52.890;6.040;2023-03-13T00:08:19;33.00;;;6.40;;
14088;SDS011;7120;52.890;6.040;2023-03-13T00:10:45;34.20;;;8.00;;
14088;SDS011;7120;52.890;6.040;2023-03-13T00:13:10;32.63;;;7.53;;
14088;SDS011;7120;52.890;6.040;2023-03-13T00:15:35;36.13;;;8.00;;
14088;SDS011;7120;52.890;6.040;2023-03-13T00:18:01;33.30;;;8.60;;
14088;SDS011;7120;52.890;6.040;2023-03-13T00:20:26;32.43;;;7.40;;
14088;SDS011;7120;52.890;6.040;2023-03-13T00:22:51;33.67;;;8.47;;
14088;SDS011;7120;52.890;6.040;2023-03-13T00:25:17;39.00;;;7.73;;
14088;SDS011;7120;52.890;6.040;2023-03-13T00:27:42;34.40;;;8.07;;
14088;SDS011;7120;52.890;6.040;2023-03-13T00:30:08;30.87;;;8.17;;
14088;SDS011;7120;52.890;6.040;2023-03-13T00:32:39;36.37;;;8.87;;
14088;SDS011;7120;52.890;6.040;2023-03-13T00:35:08;35.77;;;7.97;;
14088;SDS011;7120;52.890;6.040;2023-03-13T00:37:34;37.70;;;8.40;;
14088;SDS011;7120;52.890;6.040;2023-03-13T00:39:59;30.50;;;8.27;;
14088;SDS011;7120;52.890;6.040;2023-03-13T00:42:24;35.57;;;8.30;;
14088;SDS011;7120;52.890;6.040;2023-03-13T00:44:50;37.47;;;9.33;;
14088;SDS011;7120;52.890;6.040;2023-03-13T00:47:15;31.83;;;8.40;;
14088;SDS011;7120;52.890;6.040;2023-03-13T00:49:40;38.73;;;9.93;;
14088;SDS011;7120;52.890;6.040;2023-03-13T00:52:06;32.60;;;8.70;;
14088;SDS011;7120;52.890;6.040;2023-03-13T00:54:31;35.17;;;8.83;;
14088;SDS011;7120;52.890;6.040;2023-03-13T00:56:56;30.53;;;8.20;;
14088;SDS011;7120;52.890;6.040;2023-03-13T00:59:22;32.20;;;8.17;;
14088;SDS011;7120;52.890;6.040;2023-03-13T01:01:47;30.03;;;8.37;;
14088;SDS011;7120;52.890;6.040;2023-03-13T01:04:13;32.23;;;8.60;;
14088;SDS011;7120;52.890;6.040;2023-03-13T01:06:39;34.30;;;8.63;;
14088;SDS011;7120;52.890;6.040;2023-03-13T01:09:07;30.73;;;8.10;;
14088;SDS011;7120;52.890;6.040;2023-03-13T01:11:35;35.07;;;8.57;;
14088;SDS011;7120;52.890;6.040;2023-03-13T01:14:03;31.97;;;8.67;;
14088;SDS011;7120;52.890;6.040;2023-03-13T01:16:34;31.73;;;8.47;;
14088;SDS011;7120;52.890;6.040;2023-03-13T01:19:02;34.03;;;8.00;;
14088;SDS011;7120;52.890;6.040;2023-03-13T01:21:36;28.67;;;8.17;;
14088;SDS011;7120;52.890;6.040;2023-03-13T01:24:02;25.70;;;7.67;;
14088;SDS011;7120;52.890;6.040;2023-03-13T01:26:29;25.27;;;7.17;;
14088;SDS011;7120;52.890;6.040;2023-03-13T01:28:54;32.67;;;8.13;;
14088;SDS011;7120;52.890;6.040;2023-03-13T01:31:22;31.30;;;7.93;;
14088;SDS011;7120;52.890;6.040;2023-03-13T01:33:55;39.43;;;7.63;;
14088;SDS011;7120;52.890;6.040;2023-03-13T01:36:23;29.97;;;7.40;;
14088;SDS011;7120;52.890;6.040;2023-03-13T01:38:49;27.57;;;7.33;;
14088;SDS011;7120;52.890;6.040;2023-03-13T01:41:16;30.37;;;7.77;;
14088;SDS011;7120;52.890;6.040;2023-03-13T01:43:42;31.73;;;8.27;;
14088;SDS011;7120;52.890;6.040;2023-03-13T01:48:49;24.03;;;7.63;;
14088;SDS011;7120;52.890;6.040;2023-03-13T01:51:25;33.27;;;7.73;;
14088;SDS011;7120;52.890;6.040;2023-03-13T01:54:05;32.37;;;8.53;;
14088;SDS011;7120;52.890;6.040;2023-03-13T01:56:39;23.83;;;7.60;;
14088;SDS011;7120;52.890;6.040;2023-03-13T01:59:09;24.97;;;7.80;;
14088;SDS011;7120;52.890;6.040;2023-03-13T02:01:40;31.83;;;9.13;;
14088;SDS011;7120;52.890;6.040;2023-03-13T02:04:08;26.00;;;8.33;;
14088;SDS011;7120;52.890;6.040;2023-03-13T02:06:34;36.00;;;9.23;;
14088;SDS011;7120;52.890;6.040;2023-03-13T02:09:03;25.57;;;8.20;;
14088;SDS011;7120;52.890;6.040;2023-03-13T02:14:11;28.23;;;9.50;;
14088;SDS011;7120;52.890;6.040;2023-03-13T02:16:37;27.97;;;9.20;;
14088;SDS011;7120;52.890;6.040;2023-03-13T02:19:07;26.67;;;9.23;;
14088;SDS011;7120;52.890;6.040;2023-03-13T02:21:42;29.00;;;8.50;;
14088;SDS011;7120;52.890;6.040;2023-03-13T02:26:56;25.77;;;7.40;;
14088;SDS011;7120;52.890;6.040;2023-03-13T02:29:22;19.13;;;8.40;;
14088;SDS011;7120;52.890;6.040;2023-03-13T02:31:49;26.23;;;8.37;;
14088;SDS011;7120;52.890;6.040;2023-03-13T02:34:16;18.83;;;7.97;;
14088;SDS011;7120;52.890;6.040;2023-03-13T02:36:45;19.07;;;7.43;;
14088;SDS011;7120;52.890;6.040;2023-03-13T02:39:11;17.63;;;7.80;;
14088;SDS011;7120;52.890;6.040;2023-03-13T02:41:40;18.53;;;7.97;;
14088;SDS011;7120;52.890;6.040;2023-03-13T02:44:06;21.70;;;8.13;;
14088;SDS011;7120;52.890;6.040;2023-03-13T02:46:42;18.43;;;7.23;;
14088;SDS011;7120;52.890;6.040;2023-03-13T02:49:23;17.27;;;7.67;;
14088;SDS011;7120;52.890;6.040;2023-03-13T02:51:54;12.27;;;8.27;;
14088;SDS011;7120;52.890;6.040;2023-03-13T02:54:26;17.47;;;8.10;;
14088;SDS011;7120;52.890;6.040;2023-03-13T02:56:57;19.07;;;7.87;;
14088;SDS011;7120;52.890;6.040;2023-03-13T02:59:25;15.73;;;7.77;;
14088;SDS011;7120;52.890;6.040;2023-03-13T03:01:51;13.67;;;7.50;;
14088;SDS011;7120;52.890;6.040;2023-03-13T03:04:23;14.00;;;7.63;;
14088;SDS011;7120;52.890;6.040;2023-03-13T03:06:50;14.10;;;7.50;;
14088;SDS011;7120;52.890;6.040;2023-03-13T03:09:17;15.30;;;8.07;;
14088;SDS011;7120;52.890;6.040;2023-03-13T03:11:43;14.70;;;8.00;;
14088;SDS011;7120;52.890;6.040;2023-03-13T03:14:09;14.00;;;8.23;;
14088;SDS011;7120;52.890;6.040;2023-03-13T03:16:35;14.20;;;7.70;;
14088;SDS011;7120;52.890;6.040;2023-03-13T03:19:01;13.77;;;8.13;;
14088;SDS011;7120;52.890;6.040;2023-03-13T03:21:27;15.00;;;8.77;;
14088;SDS011;7120;52.890;6.040;2023-03-13T03:23:52;15.37;;;9.63;;
14088;SDS011;7120;52.890;6.040;2023-03-13T03:26:18;15.17;;;8.90;;
14088;SDS011;7120;52.890;6.040;2023-03-13T03:28:43;15.40;;;9.27;;
14088;SDS011;7120;52.890;6.040;2023-03-13T03:31:10;13.23;;;9.20;;
14088;SDS011;7120;52.890;6.040;2023-03-13T03:33:37;18.43;;;9.83;;
14088;SDS011;7120;52.890;6.040;2023-03-13T03:36:04;19.73;;;9.83;;
14088;SDS011;7120;52.890;6.040;2023-03-13T03:38:32;11.67;;;9.17;;
14088;SDS011;7120;52.890;6.040;2023-03-13T03:40:58;14.97;;;10.20;;
14088;SDS011;7120;52.890;6.040;2023-03-13T03:43:24;14.43;;;10.30;;
14088;SDS011;7120;52.890;6.040;2023-03-13T03:45:49;17.23;;;9.70;;
14088;SDS011;7120;52.890;6.040;2023-03-13T03:48:14;17.37;;;10.00;;
14088;SDS011;7120;52.890;6.040;2023-03-13T03:50:40;17.07;;;10.93;;
14088;SDS011;7120;52.890;6.040;2023-03-13T03:53:05;14.60;;;10.57;;
14088;SDS011;7120;52.890;6.040;2023-03-13T03:55:32;15.47;;;10.20;;
14088;SDS011;7120;52.890;6.040;2023-03-13T03:57:57;16.87;;;10.60;;
14088;SDS011;7120;52.890;6.040;2023-03-13T04:00:23;14.77;;;11.17;;
14088;SDS011;7120;52.890;6.040;2023-03-13T04:02:48;17.80;;;11.10;;
14088;SDS011;7120;52.890;6.040;2023-03-13T04:05:14;17.77;;;12.37;;
14088;SDS011;7120;52.890;6.040;2023-03-13T04:07:39;18.67;;;12.23;;
14088;SDS011;7120;52.890;6.040;2023-03-13T04:10:05;21.10;;;13.17;;
14088;SDS011;7120;52.890;6.040;2023-03-13T04:12:31;18.53;;;12.70;;
14088;SDS011;7120;52.890;6.040;2023-03-13T04:14:56;19.97;;;13.17;;
14088;SDS011;7120;52.890;6.040;2023-03-13T04:17:21;22.83;;;13.70;;
14088;SDS011;7120;52.890;6.040;2023-03-13T04:19:47;23.80;;;14.03;;
14088;SDS011;7120;52.890;6.040;2023-03-13T04:22:12;21.53;;;15.03;;
14088;SDS011;7120;52.890;6.040;2023-03-13T04:24:37;23.83;;;16.10;;
14088;SDS011;7120;52.890;6.040;2023-03-13T04:27:03;26.33;;;17.10;;
14088;SDS011;7120;52.890;6.040;2023-03-13T04:29:30;28.07;;;17.03;;
14088;SDS011;7120;52.890;6.040;2023-03-13T04:31:56;27.53;;;17.17;;
14088;SDS011;7120;52.890;6.040;2023-03-13T04:34:22;31.30;;;17.37;;
14088;SDS011;7120;52.890;6.040;2023-03-13T04:36:47;33.13;;;17.23;;
14088;SDS011;7120;52.890;6.040;2023-03-13T04:39:12;30.50;;;18.17;;
14088;SDS011;7120;52.890;6.040;2023-03-13T04:41:38;30.43;;;18.60;;
14088;SDS011;7120;52.890;6.040;2023-03-13T04:44:03;25.53;;;17.03;;
14088;SDS011;7120;52.890;6.040;2023-03-13T04:46:29;28.93;;;17.17;;
14088;SDS011;7120;52.890;6.040;2023-03-13T04:48:54;32.47;;;17.47;;
14088;SDS011;7120;52.890;6.040;2023-03-13T04:51:20;29.57;;;19.10;;
14088;SDS011;7120;52.890;6.040;2023-03-13T04:53:45;25.10;;;15.97;;
14088;SDS011;7120;52.890;6.040;2023-03-13T04:56:10;20.30;;;16.07;;
14088;SDS011;7120;52.890;6.040;2023-03-13T04:58:43;18.10;;;13.87;;
14088;SDS011;7120;52.890;6.040;2023-03-13T05:01:09;22.87;;;13.27;;
14088;SDS011;7120;52.890;6.040;2023-03-13T05:03:34;15.80;;;14.10;;
14088;SDS011;7120;52.890;6.040;2023-03-13T05:05:59;15.43;;;12.33;;
14088;SDS011;7120;52.890;6.040;2023-03-13T05:08:25;19.77;;;10.90;;
14088;SDS011;7120;52.890;6.040;2023-03-13T05:10:50;17.00;;;12.27;;
14088;SDS011;7120;52.890;6.040;2023-03-13T05:13:16;18.13;;;11.23;;
14088;SDS011;7120;52.890;6.040;2023-03-13T05:15:41;14.60;;;9.60;;
14088;SDS011;7120;52.890;6.040;2023-03-13T05:18:06;15.33;;;9.93;;
14088;SDS011;7120;52.890;6.040;2023-03-13T05:20:32;15.40;;;9.50;;
14088;SDS011;7120;52.890;6.040;2023-03-13T05:22:57;15.20;;;9.27;;
14088;SDS011;7120;52.890;6.040;2023-03-13T05:25:22;14.43;;;9.33;;
14088;SDS011;7120;52.890;6.040;2023-03-13T05:27:48;17.53;;;14.13;;
14088;SDS011;7120;52.890;6.040;2023-03-13T05:30:13;14.43;;;8.43;;
14088;SDS011;7120;52.890;6.040;2023-03-13T05:32:39;10.43;;;8.10;;
14088;SDS011;7120;52.890;6.040;2023-03-13T05:35:04;12.33;;;9.00;;
14088;SDS011;7120;52.890;6.040;2023-03-13T05:37:30;9.37;;;8.03;;
14088;SDS011;7120;52.890;6.040;2023-03-13T05:39:55;10.57;;;8.07;;
14088;SDS011;7120;52.890;6.040;2023-03-13T05:42:20;15.53;;;7.63;;
14088;SDS011;7120;52.890;6.040;2023-03-13T05:44:46;28.30;;;16.27;;
14088;SDS011;7120;52.890;6.040;2023-03-13T05:47:11;13.33;;;7.40;;
14088;SDS011;7120;52.890;6.040;2023-03-13T05:49:36;14.50;;;8.10;;
14088;SDS011;7120;52.890;6.040;2023-03-13T05:52:03;10.93;;;9.87;;
14088;SDS011;7120;52.890;6.040;2023-03-13T05:54:29;10.10;;;8.17;;
14088;SDS011;7120;52.890;6.040;2023-03-13T05:56:54;13.83;;;8.73;;
14088;SDS011;7120;52.890;6.040;2023-03-13T05:59:19;16.07;;;10.00;;
14088;SDS011;7120;52.890;6.040;2023-03-13T06:01:45;15.90;;;9.97;;
14088;SDS011;7120;52.890;6.040;2023-03-13T06:04:10;13.03;;;9.97;;
14088;SDS011;7120;52.890;6.040;2023-03-13T06:06:35;12.87;;;9.30;;
14088;SDS011;7120;52.890;6.040;2023-03-13T06:09:01;16.23;;;9.63;;
14088;SDS011;7120;52.890;6.040;2023-03-13T06:11:26;11.63;;;9.03;;
14088;SDS011;7120;52.890;6.040;2023-03-13T06:13:51;114.93;;;27.67;;
14088;SDS011;7120;52.890;6.040;2023-03-13T06:16:17;14.63;;;9.53;;
14088;SDS011;7120;52.890;6.040;2023-03-13T06:18:43;15.77;;;9.97;;
14088;SDS011;7120;52.890;6.040;2023-03-13T06:21:08;17.27;;;10.43;;
14088;SDS011;7120;52.890;6.040;2023-03-13T06:23:34;15.43;;;9.30;;
14088;SDS011;7120;52.890;6.040;2023-03-13T06:26:00;17.07;;;10.00;;
14088;SDS011;7120;52.890;6.040;2023-03-13T06:28:25;17.63;;;9.40;;
14088;SDS011;7120;52.890;6.040;2023-03-13T06:30:51;13.70;;;8.13;;
14088;SDS011;7120;52.890;6.040;2023-03-13T06:33:16;17.67;;;8.70;;
14088;SDS011;7120;52.890;6.040;2023-03-13T06:35:42;13.73;;;7.90;;
14088;SDS011;7120;52.890;6.040;2023-03-13T06:38:08;17.40;;;7.67;;
14088;SDS011;7120;52.890;6.040;2023-03-13T06:40:34;17.43;;;7.63;;
14088;SDS011;7120;52.890;6.040;2023-03-13T06:42:59;18.07;;;7.53;;
14088;SDS011;7120;52.890;6.040;2023-03-13T06:45:25;17.23;;;7.80;;
14088;SDS011;7120;52.890;6.040;2023-03-13T06:47:50;14.20;;;6.37;;
14088;SDS011;7120;52.890;6.040;2023-03-13T06:50:16;13.00;;;6.27;;
14088;SDS011;7120;52.890;6.040;2023-03-13T06:52:42;14.47;;;6.50;;
14088;SDS011;7120;52.890;6.040;2023-03-13T06:55:07;15.33;;;7.33;;
14088;SDS011;7120;52.890;6.040;2023-03-13T06:57:33;12.60;;;6.90;;
14088;SDS011;7120;52.890;6.040;2023-03-13T06:59:59;12.40;;;6.53;;
14088;SDS011;7120;52.890;6.040;2023-03-13T07:02:24;16.60;;;7.03;;
14088;SDS011;7120;52.890;6.040;2023-03-13T07:04:49;15.97;;;6.30;;
14088;SDS011;7120;52.890;6.040;2023-03-13T07:07:15;14.23;;;6.90;;
14088;SDS011;7120;52.890;6.040;2023-03-13T07:09:40;18.33;;;13.50;;
14088;SDS011;7120;52.890;6.040;2023-03-13T07:12:06;11.00;;;6.00;;
14088;SDS011;7120;52.890;6.040;2023-03-13T07:14:31;14.33;;;6.00;;
14088;SDS011;7120;52.890;6.040;2023-03-13T07:16:59;11.63;;;5.73;;
14088;SDS011;7120;52.890;6.040;2023-03-13T07:19:25;13.13;;;5.93;;
14088;SDS011;7120;52.890;6.040;2023-03-13T07:21:51;13.63;;;5.37;;
14088;SDS011;7120;52.890;6.040;2023-03-13T07:24:17;14.70;;;6.60;;
14088;SDS011;7120;52.890;6.040;2023-03-13T07:26:43;21.17;;;10.23;;
14088;SDS011;7120;52.890;6.040;2023-03-13T07:29:08;45.60;;;31.00;;
14088;SDS011;7120;52.890;6.040;2023-03-13T07:31:34;10.03;;;5.97;;
14088;SDS011;7120;52.890;6.040;2023-03-13T07:33:59;16.83;;;6.70;;
14088;SDS011;7120;52.890;6.040;2023-03-13T07:36:25;10.63;;;5.93;;
14088;SDS011;7120;52.890;6.040;2023-03-13T07:38:50;10.37;;;5.30;;
14088;SDS011;7120;52.890;6.040;2023-03-13T07:41:16;11.43;;;5.67;;
14088;SDS011;7120;52.890;6.040;2023-03-13T07:43:43;13.00;;;5.93;;
14088;SDS011;7120;52.890;6.040;2023-03-13T07:46:10;8.17;;;5.40;;
14088;SDS011;7120;52.890;6.040;2023-03-13T07:48:38;10.50;;;6.27;;
14088;SDS011;7120;52.890;6.040;2023-03-13T07:51:05;10.67;;;5.90;;
14088;SDS011;7120;52.890;6.040;2023-03-13T07:53:35;10.53;;;5.40;;
14088;SDS011;7120;52.890;6.040;2023-03-13T07:56:04;13.07;;;7.03;;
14088;SDS011;7120;52.890;6.040;2023-03-13T07:58:40;10.17;;;5.30;;
14088;SDS011;7120;52.890;6.040;2023-03-13T08:03:41;10.27;;;5.00;;
14088;SDS011;7120;52.890;6.040;2023-03-13T08:06:09;7.77;;;5.37;;
14088;SDS011;7120;52.890;6.040;2023-03-13T08:08:36;6.17;;;3.80;;
14088;SDS011;7120;52.890;6.040;2023-03-13T08:11:03;9.30;;;4.37;;
14088;SDS011;7120;52.890;6.040;2023-03-13T08:13:31;7.77;;;3.70;;
14088;SDS011;7120;52.890;6.040;2023-03-13T08:16:04;8.20;;;5.70;;
14088;SDS011;7120;52.890;6.040;2023-03-13T08:18:32;8.00;;;4.00;;
14088;SDS011;7120;52.890;6.040;2023-03-13T08:21:02;8.20;;;3.00;;
14088;SDS011;7120;52.890;6.040;2023-03-13T08:23:29;5.53;;;3.10;;
14088;SDS011;7120;52.890;6.040;2023-03-13T08:25:55;6.60;;;3.10;;
14088;SDS011;7120;52.890;6.040;2023-03-13T08:28:20;4.07;;;2.30;;
14088;SDS011;7120;52.890;6.040;2023-03-13T08:30:45;3.50;;;1.97;;
14088;SDS011;7120;52.890;6.040;2023-03-13T08:33:11;6.23;;;2.50;;
14088;SDS011;7120;52.890;6.040;2023-03-13T08:35:36;5.23;;;2.30;;
14088;SDS011;7120;52.890;6.040;2023-03-13T08:38:01;4.37;;;1.90;;
14088;SDS011;7120;52.890;6.040;2023-03-13T08:40:27;3.73;;;1.67;;
14088;SDS011;7120;52.890;6.040;2023-03-13T08:42:52;5.13;;;2.33;;
14088;SDS011;7120;52.890;6.040;2023-03-13T08:45:18;4.23;;;2.10;;
14088;SDS011;7120;52.890;6.040;2023-03-13T08:47:43;3.63;;;1.53;;
14088;SDS011;7120;52.890;6.040;2023-03-13T08:50:09;4.30;;;1.90;;
14088;SDS011;7120;52.890;6.040;2023-03-13T08:52:35;5.83;;;2.10;;
14088;SDS011;7120;52.890;6.040;2023-03-13T08:55:00;6.73;;;2.60;;
14088;SDS011;7120;52.890;6.040;2023-03-13T08:57:25;8.30;;;2.70;;
14088;SDS011;7120;52.890;6.040;2023-03-13T08:59:50;8.17;;;2.97;;
14088;SDS011;7120;52.890;6.040;2023-03-13T09:02:16;9.40;;;5.67;;
14088;SDS011;7120;52.890;6.040;2023-03-13T09:04:44;7.80;;;2.80;;
14088;SDS011;7120;52.890;6.040;2023-03-13T09:07:10;8.87;;;3.30;;
14088;SDS011;7120;52.890;6.040;2023-03-13T09:09:35;8.33;;;5.07;;
14088;SDS011;7120;52.890;6.040;2023-03-13T09:12:01;9.87;;;3.30;;
14088;SDS011;7120;52.890;6.040;2023-03-13T09:14:27;9.23;;;3.17;;
14088;SDS011;7120;52.890;6.040;2023-03-13T09:16:53;13.27;;;3.73;;
14088;SDS011;7120;52.890;6.040;2023-03-13T09:19:20;10.00;;;4.77;;
14088;SDS011;7120;52.890;6.040;2023-03-13T09:21:45;10.60;;;3.60;;
14088;SDS011;7120;52.890;6.040;2023-03-13T09:24:13;9.83;;;3.50;;
14088;SDS011;7120;52.890;6.040;2023-03-13T09:26:38;7.40;;;3.20;;
14088;SDS011;7120;52.890;6.040;2023-03-13T09:29:04;8.33;;;3.27;;
14088;SDS011;7120;52.890;6.040;2023-03-13T09:31:29;11.90;;;4.27;;
14088;SDS011;7120;52.890;6.040;2023-03-13T09:33:56;7.73;;;5.20;;
14088;SDS011;7120;52.890;6.040;2023-03-13T09:36:22;6.23;;;2.90;;
14088;SDS011;7120;52.890;6.040;2023-03-13T09:38:49;9.00;;;5.50;;
14088;SDS011;7120;52.890;6.040;2023-03-13T09:46:21;8.40;;;4.30;;
14088;SDS011;7120;52.890;6.040;2023-03-13T09:49:15;6.27;;;3.00;;
14088;SDS011;7120;52.890;6.040;2023-03-13T09:51:52;7.37;;;2.90;;
14088;SDS011;7120;52.890;6.040;2023-03-13T09:54:27;7.00;;;2.23;;
14088;SDS011;7120;52.890;6.040;2023-03-13T09:57:00;7.40;;;2.80;;
14088;SDS011;7120;52.890;6.040;2023-03-13T10:02:33;7.43;;;2.80;;
14088;SDS011;7120;52.890;6.040;2023-03-13T10:05:04;10.07;;;2.90;;
14088;SDS011;7120;52.890;6.040;2023-03-13T10:07:34;10.83;;;3.00;;
14088;SDS011;7120;52.890;6.040;2023-03-13T10:10:00;9.17;;;3.07;;
14088;SDS011;7120;52.890;6.040;2023-03-13T10:12:27;14.60;;;4.97;;
14088;SDS011;7120;52.890;6.040;2023-03-13T10:15:04;8.73;;;3.50;;
14088;SDS011;7120;52.890;6.040;2023-03-13T10:17:50;11.57;;;3.73;;
14088;SDS011;7120;52.890;6.040;2023-03-13T10:22:50;9.97;;;2.97;;
14088;SDS011;7120;52.890;6.040;2023-03-13T10:25:32;10.00;;;3.40;;
14088;SDS011;7120;52.890;6.040;2023-03-13T10:28:00;12.00;;;3.53;;
14088;SDS011;7120;52.890;6.040;2023-03-13T10:32:55;11.03;;;3.27;;
14088;SDS011;7120;52.890;6.040;2023-03-13T10:35:24;10.03;;;3.63;;
14088;SDS011;7120;52.890;6.040;2023-03-13T10:38:02;10.37;;;4.10;;
14088;SDS011;7120;52.890;6.040;2023-03-13T10:40:30;16.67;;;3.80;;
14088;SDS011;7120;52.890;6.040;2023-03-13T10:43:00;11.20;;;3.63;;
14088;SDS011;7120;52.890;6.040;2023-03-13T10:45:37;12.13;;;3.90;;
14088;SDS011;7120;52.890;6.040;2023-03-13T10:48:09;11.77;;;4.27;;
14088;SDS011;7120;52.890;6.040;2023-03-13T10:50:37;13.70;;;3.90;;
14088;SDS011;7120;52.890;6.040;2023-03-13T10:55:47;28.80;;;23.03;;
14088;SDS011;7120;52.890;6.040;2023-03-13T10:58:20;12.30;;;4.37;;
14088;SDS011;7120;52.890;6.040;2023-03-13T11:00:50;8.53;;;3.00;;
14088;SDS011;7120;52.890;6.040;2023-03-13T11:03:22;7.90;;;3.40;;
14088;SDS011;7120;52.890;6.040;2023-03-13T11:05:59;7.47;;;2.93;;
14088;SDS011;7120;52.890;6.040;2023-03-13T11:08:27;8.50;;;3.77;;
14088;SDS011;7120;52.890;6.040;2023-03-13T11:10:58;7.70;;;3.67;;
14088;SDS011;7120;52.890;6.040;2023-03-13T11:13:27;7.77;;;3.93;;
14088;SDS011;7120;52.890;6.040;2023-03-13T11:15:53;7.60;;;2.37;;
14088;SDS011;7120;52.890;6.040;2023-03-13T11:32:42;4.60;;;2.07;;
14088;SDS011;7120;52.890;6.040;2023-03-13T11:38:17;5.23;;;2.03;;
14088;SDS011;7120;52.890;6.040;2023-03-13T11:46:51;5.50;;;2.40;;
14088;SDS011;7120;52.890;6.040;2023-03-13T11:58:22;6.97;;;2.43;;
14088;SDS011;7120;52.890;6.040;2023-03-13T12:01:12;8.53;;;2.97;;
14088;SDS011;7120;52.890;6.040;2023-03-13T12:06:28;8.47;;;2.83;;
14088;SDS011;7120;52.890;6.040;2023-03-13T12:14:17;9.97;;;2.77;;
14088;SDS011;7120;52.890;6.040;2023-03-13T12:16:59;13.23;;;3.50;;
14088;SDS011;7120;52.890;6.040;2023-03-13T12:19:35;9.77;;;2.97;;
14088;SDS011;7120;52.890;6.040;2023-03-13T12:22:13;12.77;;;3.80;;
14088;SDS011;7120;52.890;6.040;2023-03-13T12:27:43;11.87;;;3.80;;
14088;SDS011;7120;52.890;6.040;2023-03-13T12:35:48;12.10;;;3.90;;
14088;SDS011;7120;52.890;6.040;2023-03-13T12:42:15;11.93;;;4.23;;
14088;SDS011;7120;52.890;6.040;2023-03-13T12:44:41;14.67;;;4.13;;
14088;SDS011;7120;52.890;6.040;2023-03-13T12:47:07;15.67;;;3.87;;
14088;SDS011;7120;52.890;6.040;2023-03-13T12:58:04;13.57;;;4.97;;
14088;SDS011;7120;52.890;6.040;2023-03-13T13:00:34;14.23;;;4.80;;
14088;SDS011;7120;52.890;6.040;2023-03-13T13:03:08;14.80;;;4.20;;
14088;SDS011;7120;52.890;6.040;2023-03-13T13:08:43;17.53;;;5.20;;
14088;SDS011;7120;52.890;6.040;2023-03-13T13:16:54;15.37;;;5.40;;
14088;SDS011;7120;52.890;6.040;2023-03-13T13:32:42;15.60;;;9.00;;
14088;SDS011;7120;52.890;6.040;2023-03-13T13:35:28;16.13;;;6.40;;
14088;SDS011;7120;52.890;6.040;2023-03-13T13:40:56;17.60;;;5.17;;
14088;SDS011;7120;52.890;6.040;2023-03-13T13:43:30;12.00;;;4.10;;
14088;SDS011;7120;52.890;6.040;2023-03-13T13:48:46;15.17;;;4.73;;
14088;SDS011;7120;52.890;6.040;2023-03-13T13:56:37;20.63;;;5.10;;
14088;SDS011;7120;52.890;6.040;2023-03-13T14:02:11;21.40;;;5.60;;
14088;SDS011;7120;52.890;6.040;2023-03-13T14:04:48;18.47;;;4.30;;
14088;SDS011;7120;52.890;6.040;2023-03-13T14:07:23;19.87;;;5.07;;
14088;SDS011;7120;52.890;6.040;2023-03-13T14:10:00;15.13;;;4.63;;
14088;SDS011;7120;52.890;6.040;2023-03-13T14:12:36;18.63;;;4.70;;
14088;SDS011;7120;52.890;6.040;2023-03-13T14:15:18;14.33;;;4.30;;
14088;SDS011;7120;52.890;6.040;2023-03-13T14:17:51;24.60;;;5.47;;
14088;SDS011;7120;52.890;6.040;2023-03-13T14:20:20;17.83;;;4.53;;
14088;SDS011;7120;52.890;6.040;2023-03-13T14:22:52;17.70;;;5.10;;
14088;SDS011;7120;52.890;6.040;2023-03-13T14:25:19;19.63;;;5.40;;
14088;SDS011;7120;52.890;6.040;2023-03-13T14:27:46;16.20;;;5.37;;
14088;SDS011;7120;52.890;6.040;2023-03-13T14:30:14;18.43;;;4.60;;
14088;SDS011;7120;52.890;6.040;2023-03-13T14:32:42;19.07;;;5.20;;
14088;SDS011;7120;52.890;6.040;2023-03-13T14:35:08;18.70;;;5.00;;
14088;SDS011;7120;52.890;6.040;2023-03-13T14:37:42;25.83;;;7.50;;
14088;SDS011;7120;52.890;6.040;2023-03-13T14:40:17;16.57;;;4.83;;
14088;SDS011;7120;52.890;6.040;2023-03-13T14:42:52;17.87;;;4.30;;
14088;SDS011;7120;52.890;6.040;2023-03-13T14:45:23;18.53;;;4.87;;
14088;SDS011;7120;52.890;6.040;2023-03-13T14:47:52;20.87;;;5.70;;
14088;SDS011;7120;52.890;6.040;2023-03-13T14:50:19;21.63;;;4.60;;
14088;SDS011;7120;52.890;6.040;2023-03-13T14:52:48;20.30;;;5.13;;
14088;SDS011;7120;52.890;6.040;2023-03-13T15:00:45;24.63;;;5.10;;
14088;SDS011;7120;52.890;6.040;2023-03-13T15:05:40;21.70;;;5.53;;
14088;SDS011;7120;52.890;6.040;2023-03-13T15:08:13;22.07;;;5.77;;
14088;SDS011;7120;52.890;6.040;2023-03-13T15:10:46;17.20;;;4.97;;
14088;SDS011;7120;52.890;6.040;2023-03-13T15:15:38;19.23;;;5.53;;
14088;SDS011;7120;52.890;6.040;2023-03-13T15:18:16;21.43;;;5.67;;
14088;SDS011;7120;52.890;6.040;2023-03-13T15:23:49;20.90;;;5.40;;
14088;SDS011;7120;52.890;6.040;2023-03-13T15:26:17;17.73;;;5.40;;
14088;SDS011;7120;52.890;6.040;2023-03-13T15:28:43;17.33;;;5.50;;
14088;SDS011;7120;52.890;6.040;2023-03-13T15:31:10;22.93;;;4.90;;
14088;SDS011;7120;52.890;6.040;2023-03-13T15:33:36;20.83;;;5.00;;
14088;SDS011;7120;52.890;6.040;2023-03-13T15:36:01;18.23;;;5.37;;
14088;SDS011;7120;52.890;6.040;2023-03-13T15:38:27;20.90;;;5.70;;
14088;SDS011;7120;52.890;6.040;2023-03-13T15:40:52;22.63;;;6.23;;
14088;SDS011;7120;52.890;6.040;2023-03-13T15:43:18;17.33;;;5.40;;
14088;SDS011;7120;52.890;6.040;2023-03-13T15:45:45;22.63;;;5.87;;
14088;SDS011;7120;52.890;6.040;2023-03-13T15:48:18;23.83;;;5.70;;
14088;SDS011;7120;52.890;6.040;2023-03-13T15:50:56;19.50;;;5.40;;
14088;SDS011;7120;52.890;6.040;2023-03-13T15:53:24;16.73;;;4.97;;
14088;SDS011;7120;52.890;6.040;2023-03-13T15:55:59;22.87;;;5.20;;
14088;SDS011;7120;52.890;6.040;2023-03-13T15:58:26;22.63;;;4.90;;
14088;SDS011;7120;52.890;6.040;2023-03-13T16:00:53;17.50;;;5.23;;
14088;SDS011;7120;52.890;6.040;2023-03-13T16:03:20;24.03;;;6.23;;
14088;SDS011;7120;52.890;6.040;2023-03-13T16:05:49;61.93;;;37.40;;
14088;SDS011;7120;52.890;6.040;2023-03-13T16:08:16;21.63;;;6.03;;
14088;SDS011;7120;52.890;6.040;2023-03-13T16:10:43;22.53;;;6.10;;
14088;SDS011;7120;52.890;6.040;2023-03-13T16:13:09;25.70;;;6.70;;
14088;SDS011;7120;52.890;6.040;2023-03-13T16:15:35;21.80;;;5.60;;
14088;SDS011;7120;52.890;6.040;2023-03-13T16:18:00;27.53;;;8.83;;
14088;SDS011;7120;52.890;6.040;2023-03-13T16:20:26;22.23;;;5.67;;
14088;SDS011;7120;52.890;6.040;2023-03-13T16:22:53;19.93;;;6.10;;
14088;SDS011;7120;52.890;6.040;2023-03-13T16:25:20;23.90;;;6.77;;
14088;SDS011;7120;52.890;6.040;2023-03-13T16:27:46;20.33;;;5.47;;
14088;SDS011;7120;52.890;6.040;2023-03-13T16:30:18;24.70;;;5.73;;
14088;SDS011;7120;52.890;6.040;2023-03-13T16:32:47;21.90;;;5.83;;
14088;SDS011;7120;52.890;6.040;2023-03-13T16:35:12;22.27;;;5.33;;
14088;SDS011;7120;52.890;6.040;2023-03-13T16:37:38;23.47;;;5.70;;
14088;SDS011;7120;52.890;6.040;2023-03-13T16:40:13;21.33;;;5.67;;
14088;SDS011;7120;52.890;6.040;2023-03-13T16:42:40;25.13;;;5.53;;
14088;SDS011;7120;52.890;6.040;2023-03-13T16:45:06;22.60;;;5.40;;
14088;SDS011;7120;52.890;6.040;2023-03-13T16:47:32;22.93;;;6.63;;
14088;SDS011;7120;52.890;6.040;2023-03-13T16:49:59;22.17;;;6.00;;
14088;SDS011;7120;52.890;6.040;2023-03-13T16:52:25;27.57;;;6.10;;
14088;SDS011;7120;52.890;6.040;2023-03-13T16:54:50;17.83;;;5.33;;
14088;SDS011;7120;52.890;6.040;2023-03-13T16:57:22;28.40;;;6.73;;
14088;SDS011;7120;52.890;6.040;2023-03-13T16:59:50;22.67;;;5.63;;
14088;SDS011;7120;52.890;6.040;2023-03-13T17:02:16;24.77;;;5.83;;
14088;SDS011;7120;52.890;6.040;2023-03-13T17:04:43;24.23;;;5.73;;
14088;SDS011;7120;52.890;6.040;2023-03-13T17:07:31;22.23;;;5.60;;
14088;SDS011;7120;52.890;6.040;2023-03-13T17:09:55;23.93;;;6.10;;